createdAt,value
2022-11-17T00:02:03.517Z,1.27
2022-11-17T00:04:30.795Z,1.38
2022-11-17T00:06:58.756Z,1.38
2022-11-17T00:09:26.352Z,1.10
2022-11-17T00:12:12.888Z,1.30
2022-11-17T00:14:41.345Z,1.50
2022-11-17T00:17:09.695Z,1.20
2022-11-17T00:19:56.006Z,1.20
2022-11-17T00:22:23.365Z,1.10
2022-11-17T00:24:51.090Z,1.30
2022-11-17T00:27:18.620Z,1.15
2022-11-17T00:29:45.846Z,1.25
2022-11-17T00:32:32.723Z,0.90
2022-11-17T00:35:00.175Z,1.25
2022-11-17T00:37:28.219Z,1.00
2022-11-17T00:40:00.574Z,1.10
2022-11-17T00:42:28.509Z,1.20
2022-11-17T00:44:55.842Z,0.98
2022-11-17T00:47:23.297Z,1.10
2022-11-17T00:49:50.651Z,1.45
2022-11-17T00:52:18.006Z,1.20
2022-11-17T00:54:47.682Z,1.50
2022-11-17T00:57:15.254Z,1.42
2022-11-17T00:59:42.501Z,1.60
2022-11-17T01:02:09.869Z,1.50
2022-11-17T01:04:37.247Z,1.30
2022-11-17T01:07:04.720Z,2.17
2022-11-17T01:09:32.150Z,1.77
2022-11-17T01:11:59.479Z,1.60
2022-11-17T01:14:28.532Z,2.20
2022-11-17T01:16:55.866Z,1.95
2022-11-17T01:19:24.239Z,2.85
2022-11-17T01:21:51.720Z,1.92
2022-11-17T01:24:19.070Z,2.47
2022-11-17T01:26:46.649Z,2.38
2022-11-17T01:29:15.263Z,2.15
2022-11-17T01:31:46.100Z,2.90
2022-11-17T01:34:13.620Z,1.88
2022-11-17T01:37:01.000Z,2.38
2022-11-17T01:39:28.924Z,2.35
2022-11-17T01:41:56.756Z,1.95
2022-11-17T01:44:48.176Z,2.90
2022-11-17T01:47:18.436Z,2.78
2022-11-17T01:49:46.035Z,2.20
2022-11-17T01:52:13.884Z,1.88
2022-11-17T01:54:43.235Z,2.03
2022-11-17T01:57:13.148Z,2.47
2022-11-17T01:59:42.901Z,2.35
2022-11-17T02:02:10.454Z,2.38
2022-11-17T02:04:40.832Z,3.83
2022-11-17T02:07:15.358Z,3.15
2022-11-17T02:09:43.378Z,2.80
2022-11-17T02:12:12.562Z,3.13
2022-11-17T02:14:40.181Z,3.13
2022-11-17T02:17:13.704Z,3.05
2022-11-17T02:19:42.953Z,3.13
2022-11-17T02:22:19.381Z,2.78
2022-11-17T02:24:46.802Z,3.35
2022-11-17T02:27:32.615Z,3.45
2022-11-17T02:30:13.612Z,2.30
2022-11-17T02:32:43.697Z,3.92
2022-11-17T02:35:11.133Z,3.35
2022-11-17T02:37:49.039Z,3.78
2022-11-17T02:40:19.616Z,2.75
2022-11-17T02:43:08.806Z,3.17
2022-11-17T02:45:36.155Z,3.63
2022-11-17T02:48:06.110Z,4.07
2022-11-17T02:50:35.679Z,4.43
2022-11-17T02:53:03.868Z,3.20
2022-11-17T02:55:33.257Z,3.25
2022-11-17T02:58:00.532Z,2.70
2022-11-17T03:00:28.637Z,3.03
2022-11-17T03:03:11.155Z,2.80
2022-11-17T03:05:57.013Z,2.85
2022-11-17T03:08:44.610Z,2.97
2022-11-17T03:11:12.241Z,3.58
2022-11-17T03:13:42.294Z,3.67
2022-11-17T03:16:28.337Z,3.53
2022-11-17T03:19:17.364Z,2.60
2022-11-17T03:22:00.494Z,2.85
2022-11-17T03:24:50.794Z,3.85
2022-11-17T03:27:22.059Z,3.47
2022-11-17T03:29:51.669Z,4.07
2022-11-17T03:32:19.409Z,3.42
2022-11-17T03:34:48.570Z,2.88
2022-11-17T03:37:17.801Z,2.38
2022-11-17T03:39:47.848Z,2.90
2022-11-17T03:42:17.721Z,2.95
2022-11-17T03:44:48.419Z,2.88
2022-11-17T03:47:16.040Z,2.60
2022-11-17T03:49:51.394Z,2.92
2022-11-17T03:52:18.965Z,2.20
2022-11-17T03:54:46.335Z,2.28
2022-11-17T03:57:15.514Z,2.03
2022-11-17T03:59:57.499Z,2.47
2022-11-17T04:02:25.945Z,2.70
2022-11-17T04:05:05.562Z,2.55
2022-11-17T04:07:50.967Z,2.72
2022-11-17T04:10:25.047Z,2.30
2022-11-17T04:13:12.017Z,2.85
2022-11-17T04:15:59.091Z,1.70
2022-11-17T04:18:27.299Z,2.33
2022-11-17T04:20:55.863Z,2.00
2022-11-17T04:23:23.948Z,3.20
2022-11-17T04:26:11.394Z,1.65
2022-11-17T04:28:42.258Z,2.42
2022-11-17T04:31:26.698Z,1.25
2022-11-17T04:33:55.288Z,4.28
2022-11-17T04:36:26.768Z,2.17
2022-11-17T04:38:55.366Z,1.27
2022-11-17T04:41:42.432Z,1.75
2022-11-17T04:44:10.760Z,1.10
2022-11-17T04:46:38.557Z,1.55
2022-11-17T04:49:06.238Z,1.10
2022-11-17T04:51:33.718Z,0.90
2022-11-17T04:54:01.439Z,1.30
2022-11-17T04:56:29.461Z,1.17
2022-11-17T04:58:56.985Z,1.30
2022-11-17T05:01:24.817Z,1.23
2022-11-17T05:03:59.567Z,1.83
2022-11-17T05:08:55.657Z,1.48
2022-11-17T05:11:43.262Z,1.65
2022-11-17T05:14:10.962Z,1.20
2022-11-17T05:16:57.174Z,1.10
2022-11-17T05:19:25.850Z,1.20
2022-11-17T05:21:53.328Z,1.10
2022-11-17T05:24:21.129Z,1.65
2022-11-17T05:26:49.152Z,1.45
2022-11-17T05:29:18.106Z,1.50
2022-11-17T05:31:45.366Z,1.10
2022-11-17T05:34:13.618Z,1.35
2022-11-17T05:36:41.788Z,1.17
2022-11-17T05:39:09.948Z,1.00
2022-11-17T05:41:37.394Z,2.92
2022-11-17T05:44:05.295Z,2.20
2022-11-17T05:46:32.791Z,1.20
2022-11-17T05:49:00.074Z,1.20
2022-11-17T05:51:27.367Z,1.13
2022-11-17T05:53:54.787Z,1.40
2022-11-17T05:56:31.452Z,1.30
2022-11-17T05:59:02.280Z,1.23
2022-11-17T06:01:30.593Z,1.45
2022-11-17T06:03:59.456Z,1.50
2022-11-17T06:06:26.883Z,1.40
2022-11-17T06:08:54.178Z,1.60
2022-11-17T06:11:21.683Z,1.80
2022-11-17T06:13:49.166Z,1.80
2022-11-17T06:16:19.358Z,1.95
2022-11-17T06:18:52.412Z,1.90
2022-11-17T06:21:19.896Z,1.30
2022-11-17T06:23:48.015Z,1.40
2022-11-17T06:26:15.978Z,2.88
2022-11-17T06:28:45.954Z,1.98
2022-11-17T06:31:14.195Z,1.30
2022-11-17T06:33:41.565Z,1.70
2022-11-17T06:36:09.704Z,1.83
2022-11-17T06:38:37.117Z,2.10
2022-11-17T06:41:10.598Z,1.38
2022-11-17T06:46:06.795Z,1.33
2022-11-17T06:48:36.179Z,1.20
2022-11-17T06:51:12.894Z,2.25
2022-11-17T06:53:41.514Z,1.85
2022-11-17T06:56:08.861Z,1.38
2022-11-17T06:58:37.693Z,2.13
2022-11-17T07:01:06.852Z,1.50
2022-11-17T07:03:35.369Z,1.77
2022-11-17T07:06:03.504Z,1.98
2022-11-17T07:08:31.308Z,1.58
2022-11-17T07:11:11.937Z,1.80
2022-11-17T07:13:39.439Z,1.35
2022-11-17T07:16:07.985Z,1.40
2022-11-17T07:18:36.033Z,1.73
2022-11-17T07:21:04.701Z,2.45
2022-11-17T07:23:35.828Z,1.70
2022-11-17T07:26:03.783Z,1.63
2022-11-17T07:28:31.021Z,1.42
2022-11-17T07:31:01.958Z,1.40
2022-11-17T07:33:29.596Z,1.42
2022-11-17T07:35:56.817Z,1.42
2022-11-17T07:38:24.218Z,1.00
2022-11-17T07:40:51.524Z,1.20
2022-11-17T07:43:18.880Z,1.15
2022-11-17T07:45:46.074Z,0.80
2022-11-17T07:48:13.580Z,1.17
2022-11-17T07:50:41.627Z,1.00
2022-11-17T07:53:09.129Z,2.25
2022-11-17T07:55:39.221Z,1.25
2022-11-17T07:58:06.658Z,1.00
2022-11-17T08:00:34.011Z,1.08
2022-11-17T08:03:04.848Z,1.30
2022-11-17T08:05:35.880Z,1.55
2022-11-17T08:08:08.190Z,1.40
2022-11-17T08:10:35.507Z,1.27
2022-11-17T08:13:02.734Z,1.40
2022-11-17T08:15:30.416Z,2.45
2022-11-17T08:17:58.864Z,1.65
2022-11-17T08:20:26.811Z,1.88
2022-11-17T08:22:54.597Z,1.58
2022-11-17T08:25:23.015Z,1.08
2022-11-17T08:27:52.189Z,1.65
2022-11-17T08:30:20.648Z,1.55
2022-11-17T08:32:54.580Z,1.67
2022-11-17T08:35:23.682Z,2.08
2022-11-17T08:37:50.977Z,2.05
2022-11-17T08:40:18.740Z,1.42
2022-11-17T08:42:46.500Z,1.55
2022-11-17T08:45:14.659Z,1.55
2022-11-17T08:47:42.030Z,1.55
2022-11-17T08:50:09.765Z,2.00
2022-11-17T08:52:37.147Z,1.45
2022-11-17T08:55:08.603Z,2.35
2022-11-17T08:57:36.396Z,1.90
2022-11-17T09:00:03.841Z,1.70
2022-11-17T09:02:31.284Z,1.60
2022-11-17T09:04:59.047Z,1.73
2022-11-17T09:07:29.450Z,1.40
2022-11-17T09:10:01.435Z,1.23
2022-11-17T09:12:28.834Z,1.70
2022-11-17T09:14:56.129Z,1.38
2022-11-17T09:17:23.936Z,2.03
2022-11-17T09:19:51.266Z,1.38
2022-11-17T09:22:19.852Z,1.60
2022-11-17T09:24:47.427Z,2.15
2022-11-17T09:27:14.958Z,1.27
2022-11-17T09:29:42.306Z,1.73
2022-11-17T09:32:09.722Z,1.33
2022-11-17T09:34:37.475Z,1.38
2022-11-17T09:37:05.064Z,1.75
2022-11-17T09:39:32.580Z,2.55
2022-11-17T09:41:59.951Z,1.20
2022-11-17T09:44:39.812Z,1.40
2022-11-17T09:47:22.368Z,1.52
2022-11-17T09:50:04.499Z,1.20
2022-11-17T09:52:31.778Z,1.20
2022-11-17T09:55:00.799Z,1.50
2022-11-17T09:57:32.076Z,1.08
2022-11-17T10:00:07.489Z,1.42
2022-11-17T10:02:35.269Z,1.27
2022-11-17T10:05:02.641Z,1.10
2022-11-17T10:07:31.135Z,1.63
2022-11-17T10:09:59.173Z,1.02
2022-11-17T10:12:31.953Z,1.48
2022-11-17T10:15:01.767Z,1.10
2022-11-17T10:17:29.017Z,1.30
2022-11-17T10:19:56.270Z,1.85
2022-11-17T10:22:34.680Z,1.42
2022-11-17T10:25:02.294Z,1.05
2022-11-17T10:27:33.586Z,1.70
2022-11-17T10:30:19.949Z,1.88
2022-11-17T10:32:55.032Z,1.60
2022-11-17T10:35:24.067Z,1.52
2022-11-17T10:37:55.441Z,1.85
2022-11-17T10:40:27.027Z,1.45
2022-11-17T10:42:55.533Z,1.88
2022-11-17T10:45:22.995Z,2.45
2022-11-17T10:47:50.827Z,1.92
2022-11-17T10:50:21.083Z,2.83
2022-11-17T10:52:48.831Z,1.90
2022-11-17T10:55:19.624Z,1.90
2022-11-17T10:57:48.747Z,2.28
2022-11-17T11:00:26.506Z,2.70
2022-11-17T11:03:04.226Z,1.88
2022-11-17T11:05:32.036Z,1.50
2022-11-17T11:08:25.548Z,1.90
2022-11-17T11:10:54.421Z,1.92
2022-11-17T11:13:39.986Z,1.77
2022-11-17T11:16:10.276Z,1.77
2022-11-17T11:18:38.282Z,1.40
2022-11-17T11:21:08.460Z,2.20
2022-11-17T11:23:40.407Z,1.77
2022-11-17T11:26:07.863Z,1.55
2022-11-17T11:28:35.310Z,2.17
2022-11-17T11:31:10.780Z,1.58
2022-11-17T11:34:07.736Z,1.73
2022-11-17T11:36:44.203Z,1.98
2022-11-17T11:39:43.641Z,1.67
2022-11-17T11:42:22.268Z,1.42
2022-11-17T11:44:49.601Z,1.42
2022-11-17T11:47:35.232Z,1.73
2022-11-17T11:50:02.544Z,1.45
2022-11-17T11:52:33.333Z,1.90
2022-11-17T11:55:02.633Z,1.58
2022-11-17T11:57:34.329Z,4.20
2022-11-17T12:00:07.009Z,1.70
2022-11-17T12:02:44.959Z,2.17
2022-11-17T12:05:21.232Z,2.00
2022-11-17T12:07:51.442Z,1.98
2022-11-17T12:10:18.793Z,1.75
2022-11-17T12:12:47.472Z,1.30
2022-11-17T12:15:20.979Z,1.92
2022-11-17T12:18:06.964Z,1.60
2022-11-17T12:20:35.769Z,2.45
2022-11-17T12:23:09.323Z,2.22
2022-11-17T12:25:37.437Z,1.85
2022-11-17T12:28:23.866Z,1.60
2022-11-17T12:30:52.826Z,1.58
2022-11-17T12:33:20.213Z,1.55
2022-11-17T12:36:07.662Z,1.80
2022-11-17T12:38:35.078Z,1.42
2022-11-17T12:41:02.455Z,2.00
2022-11-17T12:43:30.675Z,2.17
2022-11-17T12:46:00.912Z,2.00
2022-11-17T12:48:35.736Z,1.40
2022-11-17T12:51:22.158Z,1.95
2022-11-17T12:54:05.549Z,1.33
2022-11-17T12:56:48.255Z,1.95
2022-11-17T12:59:24.374Z,1.27
2022-11-17T13:02:01.032Z,1.83
2022-11-17T13:04:46.389Z,1.55
2022-11-17T13:07:21.260Z,1.30
2022-11-17T13:09:53.094Z,1.95
2022-11-17T13:12:31.023Z,2.45
2022-11-17T13:14:59.927Z,1.90
2022-11-17T13:17:34.596Z,1.60
2022-11-17T13:20:04.305Z,1.38
2022-11-17T13:22:32.026Z,1.50
2022-11-17T13:25:13.014Z,1.20
2022-11-17T13:27:47.947Z,1.40
2022-11-17T13:30:25.270Z,1.58
2022-11-17T13:32:52.850Z,1.13
2022-11-17T13:35:26.457Z,1.85
2022-11-17T13:38:12.575Z,1.20
2022-11-17T13:40:41.419Z,1.25
2022-11-17T13:43:12.713Z,1.60
2022-11-17T13:45:40.719Z,1.70
2022-11-17T13:48:07.973Z,1.48
2022-11-17T13:50:37.757Z,1.30
2022-11-17T13:53:11.253Z,1.85
2022-11-17T13:55:44.242Z,1.42
2022-11-17T13:58:27.427Z,1.65
2022-11-17T14:00:57.418Z,1.13
2022-11-17T14:03:45.041Z,1.60
2022-11-17T14:06:13.461Z,1.00
2022-11-17T14:08:41.951Z,1.40
2022-11-17T14:11:12.097Z,2.40
2022-11-17T14:13:41.292Z,1.25
2022-11-17T14:16:20.107Z,1.42
2022-11-17T14:18:56.168Z,1.58
2022-11-17T14:21:23.826Z,1.90
2022-11-17T14:24:01.160Z,1.45
2022-11-17T14:26:28.975Z,1.33
2022-11-17T14:29:02.039Z,2.22
2022-11-17T14:31:30.729Z,1.40
2022-11-17T14:33:58.115Z,1.67
2022-11-17T14:36:25.745Z,1.52
2022-11-17T14:38:53.476Z,1.75
2022-11-17T14:41:20.871Z,1.73
2022-11-17T14:43:48.380Z,1.80
2022-11-17T14:46:20.250Z,1.23
2022-11-17T14:48:47.602Z,1.77
2022-11-17T14:51:16.255Z,1.90
2022-11-17T14:53:44.619Z,2.22
2022-11-17T14:56:13.858Z,1.38
2022-11-17T14:58:41.506Z,2.00
2022-11-17T15:01:18.948Z,1.98
2022-11-17T15:03:46.803Z,1.50
2022-11-17T15:06:19.855Z,1.42
2022-11-17T15:08:48.363Z,1.80
2022-11-17T15:11:17.122Z,1.80
2022-11-17T15:13:44.881Z,1.70
2022-11-17T15:16:12.785Z,1.65
2022-11-17T15:18:40.156Z,1.58
2022-11-17T15:21:08.857Z,1.52
2022-11-17T15:23:40.039Z,1.55
2022-11-17T15:26:08.742Z,1.60
2022-11-17T15:28:36.024Z,1.80
2022-11-17T15:31:29.635Z,1.70
2022-11-17T15:33:57.402Z,1.42
2022-11-17T15:36:24.998Z,1.90
2022-11-17T15:38:53.520Z,2.30
2022-11-17T15:41:21.229Z,2.05
2022-11-17T15:43:48.668Z,3.13
2022-11-17T15:46:17.791Z,1.88
2022-11-17T15:48:46.305Z,2.00
2022-11-17T15:51:17.827Z,2.05
2022-11-17T15:53:46.690Z,1.77
2022-11-17T15:56:18.868Z,1.90
2022-11-17T15:58:46.662Z,2.25
2022-11-17T16:01:18.499Z,2.10
2022-11-17T16:03:46.440Z,2.00
2022-11-17T16:06:13.937Z,1.40
2022-11-17T16:08:42.136Z,1.45
2022-11-17T16:11:10.496Z,2.45
2022-11-17T16:13:38.089Z,1.95
2022-11-17T16:16:06.036Z,2.05
2022-11-17T16:18:34.360Z,1.80
2022-11-17T16:21:05.365Z,1.88
2022-11-17T16:23:38.297Z,1.60
2022-11-17T16:26:05.912Z,2.08
2022-11-17T16:28:33.236Z,2.17
2022-11-17T16:31:00.846Z,2.35
2022-11-17T16:33:28.181Z,3.10
2022-11-17T16:35:55.668Z,1.80
2022-11-17T16:38:23.161Z,2.00
2022-11-17T16:40:50.641Z,2.05
2022-11-17T16:43:18.034Z,1.75
2022-11-17T16:45:46.035Z,1.90
2022-11-17T16:48:13.595Z,1.58
2022-11-17T16:50:42.352Z,1.58
2022-11-17T16:53:09.802Z,1.90
2022-11-17T16:55:37.423Z,2.50
2022-11-17T16:58:05.635Z,1.90
2022-11-17T17:00:34.444Z,3.22
2022-11-17T17:03:02.360Z,2.28
2022-11-17T17:05:29.845Z,2.42
2022-11-17T17:07:57.577Z,1.75
2022-11-17T17:10:25.219Z,1.98
2022-11-17T17:12:52.834Z,2.20
2022-11-17T17:15:20.445Z,3.17
2022-11-17T17:17:48.126Z,2.30
2022-11-17T17:20:15.588Z,2.05
2022-11-17T17:22:43.037Z,2.83
2022-11-17T17:25:10.664Z,2.20
2022-11-17T17:27:37.859Z,2.30
2022-11-17T17:30:05.890Z,1.75
2022-11-17T17:32:33.240Z,2.50
2022-11-17T17:35:00.558Z,1.63
2022-11-17T17:37:28.256Z,2.00
2022-11-17T17:39:56.072Z,1.92
2022-11-17T17:42:23.344Z,2.45
2022-11-17T17:44:51.014Z,1.80
2022-11-17T17:47:18.688Z,2.10
2022-11-17T17:49:45.967Z,2.25
2022-11-17T17:52:14.216Z,1.77
2022-11-17T17:54:41.721Z,2.20
2022-11-17T17:57:10.549Z,2.08
2022-11-17T17:59:38.204Z,2.75
2022-11-17T18:02:05.688Z,2.22
2022-11-17T18:04:33.072Z,2.63
2022-11-17T18:07:01.708Z,2.30
2022-11-17T18:09:29.968Z,2.00
2022-11-17T18:11:57.250Z,1.85
2022-11-17T18:14:25.093Z,2.03
2022-11-17T18:16:52.613Z,1.70
2022-11-17T18:19:20.308Z,1.83
2022-11-17T18:21:47.898Z,2.33
2022-11-17T18:24:15.506Z,2.72
2022-11-17T18:26:42.851Z,2.67
2022-11-17T18:29:15.592Z,1.80
2022-11-17T18:31:43.532Z,2.63
2022-11-17T18:34:21.712Z,1.90
2022-11-17T18:36:49.506Z,1.77
2022-11-17T18:39:17.227Z,2.45
2022-11-17T18:41:45.518Z,1.95
2022-11-17T18:44:13.815Z,1.90
2022-11-17T18:46:41.587Z,2.08
2022-11-17T18:49:09.165Z,1.58
2022-11-17T18:51:36.560Z,1.80
2022-11-17T18:54:03.877Z,1.75
2022-11-17T18:56:36.066Z,1.85
2022-11-17T18:59:03.993Z,1.63
2022-11-17T19:01:31.557Z,1.42
2022-11-17T19:04:02.930Z,1.65
2022-11-17T19:06:30.674Z,1.67
2022-11-17T19:08:58.979Z,1.67
2022-11-17T19:11:27.137Z,1.55
2022-11-17T19:13:54.503Z,1.80
2022-11-17T19:16:25.926Z,1.85
2022-11-17T19:18:54.794Z,1.30
2022-11-17T19:21:26.870Z,1.75
2022-11-17T19:23:55.396Z,1.13
2022-11-17T19:26:29.897Z,1.17
2022-11-17T19:28:58.367Z,1.55
2022-11-17T19:31:28.016Z,1.58
2022-11-17T19:33:57.749Z,1.30
2022-11-17T19:36:32.619Z,2.10
2022-11-17T19:41:28.557Z,1.15
2022-11-17T19:43:56.606Z,1.40
2022-11-17T19:46:24.499Z,1.73
2022-11-17T19:48:52.089Z,1.67
2022-11-17T19:51:20.573Z,1.35
2022-11-17T19:53:49.048Z,2.17
2022-11-17T19:56:16.502Z,1.17
2022-11-17T19:58:44.337Z,1.70
2022-11-17T20:01:32.066Z,1.35
2022-11-17T20:04:00.483Z,1.55
2022-11-17T20:06:29.030Z,1.60
2022-11-17T20:09:00.099Z,1.35
2022-11-17T20:11:28.629Z,1.50
2022-11-17T20:13:56.324Z,1.10
2022-11-17T20:16:24.798Z,1.35
2022-11-17T20:18:56.115Z,1.30
2022-11-17T20:21:23.940Z,1.65
2022-11-17T20:23:51.283Z,1.45
2022-11-17T20:26:20.002Z,1.90
2022-11-17T20:28:47.990Z,1.30
2022-11-17T20:31:15.380Z,1.48
2022-11-17T20:33:43.565Z,1.73
2022-11-17T20:36:14.952Z,1.38
2022-11-17T20:38:42.240Z,1.95
2022-11-17T20:41:09.936Z,1.10
2022-11-17T20:43:37.675Z,1.38
2022-11-17T20:46:05.162Z,1.83
2022-11-17T20:48:35.213Z,1.83
2022-11-17T20:51:06.735Z,1.48
2022-11-17T20:53:34.265Z,1.48
2022-11-17T20:56:02.805Z,1.60
2022-11-17T20:58:30.570Z,1.45
2022-11-17T21:00:57.888Z,1.27
2022-11-17T21:03:27.118Z,1.42
2022-11-17T21:06:00.742Z,1.63
2022-11-17T21:08:30.287Z,1.27
2022-11-17T21:11:05.704Z,1.38
2022-11-17T21:13:34.947Z,1.40
2022-11-17T21:16:12.358Z,1.63
2022-11-17T21:18:45.176Z,1.60
2022-11-17T21:21:12.785Z,1.67
2022-11-17T21:23:40.587Z,1.60
2022-11-17T21:26:09.073Z,1.35
2022-11-17T21:28:37.486Z,1.15
2022-11-17T21:31:10.926Z,2.00
2022-11-17T21:33:38.443Z,1.20
2022-11-17T21:36:07.143Z,1.40
2022-11-17T21:38:34.937Z,1.40
2022-11-17T21:41:12.257Z,1.45
2022-11-17T21:43:40.872Z,1.25
2022-11-17T21:46:09.657Z,1.45
2022-11-17T21:48:37.596Z,1.20
2022-11-17T21:51:05.798Z,1.42
2022-11-17T21:53:33.455Z,1.52
2022-11-17T21:56:01.530Z,1.70
2022-11-17T21:58:29.191Z,1.52
2022-11-17T22:00:56.883Z,1.33
2022-11-17T22:03:24.596Z,1.40
2022-11-17T22:05:54.841Z,1.38
2022-11-17T22:08:25.400Z,1.55
2022-11-17T22:10:52.692Z,1.60
2022-11-17T22:13:20.490Z,1.48
2022-11-17T22:15:47.804Z,1.83
2022-11-17T22:18:15.132Z,1.70
2022-11-17T22:20:42.731Z,1.83
2022-11-17T22:23:10.040Z,1.60
2022-11-17T22:25:45.124Z,1.30
2022-11-17T22:28:14.793Z,1.42
2022-11-17T22:30:42.144Z,1.58
2022-11-17T22:33:09.427Z,1.35
2022-11-17T22:35:36.791Z,1.35
2022-11-17T22:38:04.098Z,1.40
2022-11-17T22:40:31.466Z,1.60
2022-11-17T22:43:03.533Z,1.45
2022-11-17T22:45:32.011Z,1.70
2022-11-17T22:47:59.363Z,1.90
2022-11-17T22:50:26.864Z,1.50
2022-11-17T22:52:54.871Z,2.08
2022-11-17T22:55:22.281Z,1.80
2022-11-17T22:57:50.088Z,1.60
2022-11-17T23:00:18.076Z,1.60
2022-11-17T23:02:45.401Z,1.88
2022-11-17T23:05:12.842Z,2.88
2022-11-17T23:07:40.356Z,1.70
2022-11-17T23:10:07.895Z,1.58
2022-11-17T23:12:35.412Z,1.83
2022-11-17T23:15:02.773Z,1.98
2022-11-17T23:17:30.156Z,1.70
2022-11-17T23:19:57.609Z,1.50
2022-11-17T23:22:24.898Z,1.90
2022-11-17T23:24:52.308Z,1.58
2022-11-17T23:27:20.350Z,1.60
2022-11-17T23:29:47.777Z,1.50
2022-11-17T23:32:15.026Z,1.67
2022-11-17T23:34:42.502Z,1.80
2022-11-17T23:37:09.798Z,1.92
2022-11-17T23:39:37.220Z,1.77
2022-11-17T23:42:04.650Z,2.30
2022-11-17T23:44:32.262Z,1.45
2022-11-17T23:46:59.638Z,1.40
2022-11-17T23:49:27.129Z,1.23
2022-11-17T23:51:54.451Z,1.60
2022-11-17T23:54:22.018Z,2.28
2022-11-17T23:56:53.132Z,1.80
2022-11-17T23:59:21.178Z,1.55
